Time;durP1;ratioP1;P1;durP2;ratioP2;P2;SDS_P1;SDS_P2;PMS_P1;PMS_P2;Temp;Humidity;BMP_temperature;BMP_pressure;BME280_temperature;BME280_humidity;BME280_pressure;Samples;Min_cycle;Max_cycle;Signal;HPM_P1;HPM_P2
2021/08/06 16:55:12;;;;;;;;;21.80;20.00;;;;;23.56;47.12;100103.25;4990046;28;44774;-59
2021/08/06 16:57:37;;;;;;;;;0.50;0.50;;;;;23.79;47.16;100108.50;4968674;28;44830;-68
2021/08/06 17:02:29;;;;;;;;;99.00;99.00;;;;;24.30;44.74;100084.94;5489490;22;46564;-94
2021/08/06 17:05:06;;;;;;;;;96.80;96.80;;;;;24.45;44.23;100076.69;5119878;27;45037;-95
2021/08/06 17:07:51;;;;;;;;;100.40;100.40;;;;;24.75;43.93;100104.66;5140060;27;44615;-94
2021/08/06 17:19:06;;;;;;;;;114.80;114.80;;;;;24.68;41.30;100077.44;5436730;22;45986;-94
2021/08/06 17:37:25;;;;;;;;;78.17;72.33;;;;;24.40;42.54;100117.19;5886561;22;46137;-92
2021/08/06 17:40:23;;;;;;;;;104.20;104.20;;;;;24.21;40.87;100094.28;5088028;27;44759;-94
2021/08/06 19:21:21;;;;;;;;;12.00;12.00;;;;;22.64;46.55;100108.97;6127030;22;45920;-89
2021/08/06 19:33:03;;;;;;;;;3.50;2.50;;;;;22.08;47.60;100066.84;5504588;22;46191;-91
2021/08/06 19:35:41;;;;;;;;;4.00;3.00;;;;;22.09;47.48;100065.81;4987851;28;45280;-93
2021/08/06 19:38:21;;;;;;;;;6.50;5.75;;;;;21.97;47.76;100049.19;5010251;28;44791;-91
2021/08/06 19:43:45;;;;;;;;;16.00;16.00;;;;;21.99;47.82;100074.19;5031889;23;44758;-92
2021/08/06 19:46:15;;;;;;;;;8.00;8.00;;;;;21.95;47.68;100081.00;5006088;28;45537;-92
2021/08/06 19:49:04;;;;;;;;;9.00;9.00;;;;;21.95;47.95;100091.81;5005693;28;44699;-94
2021/08/06 19:51:44;;;;;;;;;9.75;9.00;;;;;21.87;48.10;100087.34;4974718;28;45391;-92
2021/08/06 19:54:14;;;;;;;;;11.00;10.75;;;;;21.95;48.49;100099.94;4981648;28;44930;-92
2021/08/06 19:57:03;;;;;;;;;5.75;5.75;;;;;21.83;48.29;100088.69;4991906;28;45283;-94
2021/08/06 19:59:30;;;;;;;;;20.25;18.50;;;;;21.60;48.52;100068.72;4981365;28;44831;-93
2021/08/06 20:02:03;;;;;;;;;3.50;3.50;;;;;21.83;48.68;100104.94;4971467;28;44831;-90
2021/08/06 20:04:40;;;;;;;;;5.00;5.00;;;;;21.99;48.46;100141.84;5000507;28;44857;-92
2021/08/06 20:07:23;;;;;;;;;8.25;8.25;;;;;21.70;49.03;100105.50;4986974;28;45190;-90
2021/08/06 20:09:55;;;;;;;;;5.75;4.50;;;;;21.75;48.51;100119.38;5002078;28;44786;-90
2021/08/06 20:12:22;;;;;;;;;9.25;9.25;;;;;21.63;48.85;100111.66;4965307;28;44799;-94
2021/08/06 20:15:11;;;;;;;;;11.50;11.25;;;;;21.55;49.22;100103.56;4979908;28;44731;-93
2021/08/06 20:17:48;;;;;;;;;1.00;1.00;;;;;21.44;48.36;100090.44;4987017;28;45147;-93
2021/08/06 20:20:18;;;;;;;;;5.00;3.75;;;;;21.56;48.68;100121.50;4978829;28;44762;-93
2021/08/06 20:22:45;;;;;;;;;9.50;9.50;;;;;21.57;48.97;100134.00;5562691;22;44813;-93
2021/08/06 20:25:56;;;;;;;;;13.00;13.00;;;;;21.54;49.13;100128.94;4938648;28;44914;-95
2021/08/06 21:10:51;;;;;;;;;14.00;14.00;;;;;21.15;50.79;100109.03;4980053;28;46877;-93
2021/08/06 21:13:38;;;;;;;;;15.00;12.75;;;;;21.27;50.43;100136.53;4970139;28;44767;-93
2021/08/06 21:39:32;;;;;;;;;5.50;5.50;;;;;20.95;51.28;100093.25;4984240;28;44876;-94
2021/08/06 21:42:26;;;;;;;;;27.00;27.00;;;;;21.04;51.27;100110.25;4982663;28;44774;-96
2021/08/06 21:45:15;;;;;;;;;11.75;11.75;;;;;20.87;51.24;100085.97;4968780;28;45033;-94
2021/08/06 21:53:17;;;;;;;;;25.75;25.75;;;;;20.87;51.31;100106.72;5158890;22;44898;-92
2021/08/06 21:56:42;;;;;;;;;14.50;12.25;;;;;20.86;51.27;100123.97;4988603;28;45022;-94
2021/08/06 21:59:32;;;;;;;;;18.75;18.25;;;;;20.75;51.53;100106.28;4990359;28;44556;-96
2021/08/06 22:02:46;;;;;;;;;17.25;16.00;;;;;20.65;51.79;100099.22;4988242;28;44820;-95
2021/08/06 22:05:34;;;;;;;;;14.25;14.25;;;;;20.71;51.59;100116.56;4984737;28;44867;-95
2021/08/06 22:08:05;;;;;;;;;24.25;23.25;;;;;20.60;52.01;100096.19;4954175;28;45085;-94
2021/08/06 22:10:31;;;;;;;;;6.00;6.00;;;;;20.63;51.40;100112.03;4972646;28;44741;-94
2021/08/06 22:13:02;;;;;;;;;30.00;30.00;;;;;20.62;52.00;100104.94;4956912;28;44808;-93
2021/08/06 22:15:45;;;;;;;;;17.25;17.25;;;;;20.58;51.74;100100.91;4986425;28;44760;-91
2021/08/06 22:18:45;;;;;;;;;4.75;3.25;;;;;20.62;51.90;100102.25;4972843;28;45190;-93
2021/08/06 22:21:17;;;;;;;;;14.50;14.25;;;;;20.77;51.78;100128.56;4987180;28;44849;-93
2021/08/06 22:24:07;;;;;;;;;12.75;12.75;;;;;20.71;51.44;100115.72;4970864;28;44744;-94
2021/08/06 22:26:39;;;;;;;;;15.00;14.50;;;;;20.52;51.80;100088.94;4986516;28;44871;-94
2021/08/06 22:29:14;;;;;;;;;15.50;14.25;;;;;20.72;52.18;100125.53;4970356;28;45329;-91
2021/08/06 22:31:44;;;;;;;;;15.75;15.25;;;;;20.44;52.25;100086.28;4965756;28;44979;-93
2021/08/06 22:34:14;;;;;;;;;7.50;7.50;;;;;20.69;51.64;100118.63;4966347;28;44787;-95
2021/08/06 22:36:45;;;;;;;;;24.50;24.50;;;;;20.57;51.68;100093.00;4972520;28;44825;-95
2021/08/06 22:39:20;;;;;;;;;2.75;2.75;;;;;20.52;51.72;100086.25;4988478;28;45219;-95
2021/08/06 22:41:59;;;;;;;;;0.00;0.00;;;;;20.63;52.44;100117.44;4987825;28;44786;-95
2021/08/06 22:44:55;;;;;;;;;12.75;12.75;;;;;20.42;52.50;100084.75;4987917;28;44766;-94
2021/08/06 22:47:26;;;;;;;;;8.50;6.75;;;;;20.61;52.26;100134.84;4986363;28;44867;-95
2021/08/06 22:49:53;;;;;;;;;11.00;11.00;;;;;20.42;52.46;100106.38;4952974;28;45285;-94
2021/08/06 22:52:21;;;;;;;;;15.50;15.50;;;;;20.55;52.58;100122.03;4952794;28;44841;-94
2021/08/06 22:54:54;;;;;;;;;20.25;20.25;;;;;20.43;52.17;100116.97;4965061;28;44775;-93
2021/08/06 22:57:26;;;;;;;;;15.25;14.00;;;;;20.33;52.84;100098.25;4968157;28;44839;-93
2021/08/06 22:59:53;;;;;;;;;12.50;12.50;;;;;20.47;52.43;100130.97;4977087;28;45100;-95
2021/08/06 23:02:25;;;;;;;;;28.50;28.50;;;;;20.42;52.82;100119.88;4969429;28;44811;-94
2021/08/06 23:04:53;;;;;;;;;9.00;9.00;;;;;20.13;53.01;100086.97;4982844;28;44806;-93
2021/08/06 23:07:38;;;;;;;;;18.50;18.50;;;;;20.19;53.10;100096.25;4966232;28;44843;-95
2021/08/06 23:10:13;;;;;;;;;16.00;14.50;;;;;20.09;53.28;100085.63;4984846;28;45025;-94
2021/08/06 23:12:45;;;;;;;;;21.50;16.75;;;;;20.02;52.69;100086.31;4986146;28;44804;-95
2021/08/06 23:15:34;;;;;;;;;13.50;13.25;;;;;20.20;53.00;100122.25;4966773;28;44808;-94
2021/08/06 23:18:21;;;;;;;;;13.25;12.75;;;;;19.98;53.50;100098.41;4960864;28;44881;-96
2021/08/06 23:20:51;;;;;;;;;17.00;16.00;;;;;20.19;53.76;100136.72;4983534;28;45229;-96
2021/08/06 23:23:30;;;;;;;;;23.75;23.75;;;;;19.90;53.69;100098.41;4948850;28;44934;-95
2021/08/06 23:25:58;;;;;;;;;15.75;15.75;;;;;20.12;53.65;100131.19;4968672;28;44768;-94
2021/08/06 23:28:30;;;;;;;;;11.75;11.75;;;;;19.99;53.34;100124.41;4968902;28;44858;-95
2021/08/06 23:31:09;;;;;;;;;14.00;14.00;;;;;19.95;53.87;100116.81;4976551;28;45360;-94
2021/08/06 23:33:46;;;;;;;;;9.75;9.75;;;;;19.93;53.61;100105.31;4962276;28;44935;-94
2021/08/06 23:36:16;;;;;;;;;8.25;8.25;;;;;20.10;53.38;100143.97;4968377;28;44779;-93
2021/08/06 23:39:03;;;;;;;;;10.00;10.00;;;;;20.08;54.16;100141.44;4965059;28;44955;-94
2021/08/06 23:41:33;;;;;;;;;13.00;13.00;;;;;20.01;54.00;100126.94;4953149;28;45426;-94
2021/08/06 23:44:00;;;;;;;;;19.75;17.50;;;;;20.05;54.21;100138.25;4965403;28;44855;-94
2021/08/06 23:46:30;;;;;;;;;32.25;30.50;;;;;19.82;54.12;100110.03;4966933;28;44801;-94
2021/08/06 23:49:23;;;;;;;;;16.25;14.75;;;;;20.01;54.07;100133.19;4984457;28;44888;-93
2021/08/06 23:52:07;;;;;;;;;5.00;5.00;;;;;20.00;54.08;100141.44;4985016;28;45233;-93
2021/08/06 23:57:37;;;;;;;;;13.00;12.50;;;;;19.76;54.18;100113.41;5390128;22;44938;-92
